Terminal Aerodrome Forecast
Issued by NWS Raleigh/Durham, NC

Home | Current Version | Previous Version | Text Only | Print | Product List | Glossary On
Versions: 1 2 3 4 5 6 7 8 9 10 11 12 13 14 15 16 17 18 19 20
000
FTUS42 KRAH 301045 AAA
TAFFAY
TAF AMD
KFAY 301045Z 3011/3106 02006KT 3/4SM BR OVC002
      TEMPO 3011/3013 2SM BR OVC005
     FM301300 02005KT P6SM VCSH BKN008 OVC012
     FM301700 03005KT 6SM -SHRA BR BKN025 BKN080
     FM310100 VRB04KT 5SM BR BKN015 OVC035=

USA.gov is the U.S. government's official web portal to all federal, state and local government web resources and services.